DAL554 KSLC-KATL
Flight info
| Callsign | DAL554 |
|---|---|
| Flight time | N/A |
| Altitude | 41000 |
| Route | RUGGD3 PERTY CHE DVV GLD HYS KK51C WEITT KK42G MEMFS HUTCC KNSAW RUSSA GLAVN2 |
| Aircraft | A359/H-SDE2E3GHIJ3J4J5LM1ORWXY/LB1D1 |
Departure
| Time | N/A |
|---|---|
| Airport | Salt Lake City International Airport (KSLC) |
Arrival
| Time | 2026-05-08 03:35 |
|---|---|
| Airport | Hartsfield Jackson Atlanta International Airport (KATL) |
| Time | Latitude | Longitude | Altitude | Speed | Heading |
|---|---|---|---|---|---|
| 2026-05-08 01:23 | 40.15185 | -105.68884 | 41121 ft | 535 kts | 106° |
| 2026-05-08 01:24 | 40.12997 | -105.59628 | 41081 ft | 536 kts | 107° |
| 2026-05-08 01:24 | 40.10770 | -105.50259 | 41003 ft | 543 kts | 106° |
| 2026-05-08 01:25 | 40.08530 | -105.40869 | 40973 ft | 543 kts | 107° |
| 2026-05-08 01:25 | 40.06286 | -105.31498 | 41009 ft | 541 kts | 107° |
| 2026-05-08 01:26 | 40.04032 | -105.22134 | 41008 ft | 538 kts | 107° |
| 2026-05-08 01:26 | 40.01794 | -105.12859 | 40971 ft | 536 kts | 107° |
| 2026-05-08 01:27 | 39.99549 | -105.03589 | 40981 ft | 536 kts | 107° |
| 2026-05-08 01:27 | 39.97313 | -104.94393 | 40947 ft | 536 kts | 107° |
| 2026-05-08 01:28 | 39.95054 | -104.85144 | 40956 ft | 535 kts | 107° |
| 2026-05-08 01:28 | 39.92794 | -104.75927 | 40989 ft | 534 kts | 107° |
| 2026-05-08 01:29 | 39.90525 | -104.66711 | 40989 ft | 533 kts | 108° |
| 2026-05-08 01:29 | 39.88668 | -104.57369 | 40990 ft | 533 kts | 102° |
| 2026-05-08 01:30 | 39.87122 | -104.47933 | 41004 ft | 533 kts | 101° |
| 2026-05-08 01:30 | 39.85619 | -104.38488 | 40987 ft | 533 kts | 101° |
| 2026-05-08 01:31 | 39.84106 | -104.29049 | 40964 ft | 533 kts | 101° |
| 2026-05-08 01:31 | 39.82575 | -104.19612 | 40945 ft | 533 kts | 101° |
| 2026-05-08 01:32 | 39.81030 | -104.10167 | 40909 ft | 534 kts | 101° |
| 2026-05-08 01:32 | 39.79476 | -104.00716 | 40898 ft | 535 kts | 102° |
| 2026-05-08 01:33 | 39.77913 | -103.91266 | 40901 ft | 535 kts | 102° |
| 2026-05-08 01:33 | 39.76342 | -103.81811 | 40908 ft | 535 kts | 102° |
| 2026-05-08 01:34 | 39.74762 | -103.72351 | 40908 ft | 536 kts | 102° |
| 2026-05-08 01:34 | 39.73170 | -103.62872 | 40905 ft | 536 kts | 102° |
| 2026-05-08 01:35 | 39.71571 | -103.53402 | 40906 ft | 536 kts | 102° |
| 2026-05-08 01:35 | 39.69965 | -103.43940 | 40909 ft | 536 kts | 102° |
| 2026-05-08 01:36 | 39.68363 | -103.34548 | 40903 ft | 536 kts | 103° |
| 2026-05-08 01:36 | 39.66745 | -103.25116 | 40906 ft | 535 kts | 103° |
| 2026-05-08 01:37 | 39.65121 | -103.15699 | 40901 ft | 535 kts | 103° |
| 2026-05-08 01:37 | 39.63488 | -103.06275 | 40903 ft | 535 kts | 103° |
| 2026-05-08 01:38 | 39.61848 | -102.96856 | 40898 ft | 535 kts | 103° |
| 2026-05-08 01:38 | 39.60198 | -102.87433 | 40892 ft | 535 kts | 103° |
| 2026-05-08 01:39 | 39.58542 | -102.78024 | 40897 ft | 535 kts | 103° |
| 2026-05-08 01:39 | 39.56877 | -102.68606 | 40894 ft | 537 kts | 103° |
| 2026-05-08 01:40 | 39.55201 | -102.59174 | 40885 ft | 538 kts | 104° |
| 2026-05-08 01:40 | 39.53514 | -102.49734 | 40890 ft | 538 kts | 104° |
| 2026-05-08 01:41 | 39.51821 | -102.40305 | 40909 ft | 538 kts | 104° |
| 2026-05-08 01:41 | 39.50115 | -102.30850 | 40890 ft | 539 kts | 104° |
| 2026-05-08 01:42 | 39.48401 | -102.21395 | 40891 ft | 539 kts | 104° |
| 2026-05-08 01:42 | 39.46678 | -102.11941 | 40888 ft | 540 kts | 104° |
| 2026-05-08 01:43 | 39.44948 | -102.02491 | 40891 ft | 540 kts | 104° |
| 2026-05-08 01:43 | 39.43207 | -101.93033 | 40888 ft | 541 kts | 104° |
| 2026-05-08 01:44 | 39.41457 | -101.83568 | 40880 ft | 541 kts | 104° |
| 2026-05-08 01:44 | 39.39712 | -101.74173 | 40882 ft | 541 kts | 104° |
| 2026-05-08 01:45 | 39.37921 | -101.64733 | 40886 ft | 541 kts | 106° |
| 2026-05-08 01:45 | 39.35923 | -101.55363 | 40920 ft | 542 kts | 107° |
| 2026-05-08 01:46 | 39.33866 | -101.45985 | 40910 ft | 542 kts | 107° |
| 2026-05-08 01:46 | 39.31831 | -101.36607 | 40895 ft | 542 kts | 107° |
| 2026-05-08 01:47 | 39.29809 | -101.27232 | 40885 ft | 542 kts | 107° |
| 2026-05-08 01:47 | 39.27779 | -101.17837 | 40879 ft | 544 kts | 107° |
| 2026-05-08 01:48 | 39.24712 | -101.03723 | 40900 ft | 545 kts | 107° |
| 2026-05-08 01:48 | 39.22653 | -100.94306 | 40912 ft | 545 kts | 107° |
| 2026-05-08 01:49 | 39.20588 | -100.84900 | 40923 ft | 545 kts | 107° |
| 2026-05-08 01:49 | 39.18516 | -100.75500 | 40925 ft | 545 kts | 107° |
| 2026-05-08 01:50 | 39.16435 | -100.66103 | 40916 ft | 545 kts | 107° |
| 2026-05-08 01:50 | 39.14346 | -100.56705 | 40916 ft | 545 kts | 108° |
| 2026-05-08 01:51 | 39.12249 | -100.47315 | 40885 ft | 547 kts | 108° |
| 2026-05-08 01:51 | 39.10153 | -100.37963 | 40863 ft | 547 kts | 108° |
| 2026-05-08 01:52 | 39.08032 | -100.28544 | 40864 ft | 548 kts | 108° |
| 2026-05-08 01:52 | 39.05905 | -100.19134 | 40868 ft | 548 kts | 108° |
| 2026-05-08 01:53 | 39.03762 | -100.09695 | 40856 ft | 550 kts | 108° |
| 2026-05-08 01:53 | 39.01610 | -100.00256 | 40856 ft | 550 kts | 108° |
| 2026-05-08 01:54 | 38.99450 | -99.90817 | 40854 ft | 550 kts | 108° |
| 2026-05-08 01:54 | 38.97285 | -99.81399 | 40865 ft | 550 kts | 108° |
| 2026-05-08 01:55 | 38.95103 | -99.71947 | 40856 ft | 552 kts | 108° |
| 2026-05-08 01:55 | 38.92914 | -99.62496 | 40859 ft | 552 kts | 109° |
| 2026-05-08 01:56 | 38.90717 | -99.53057 | 40867 ft | 552 kts | 109° |
| 2026-05-08 01:56 | 38.88510 | -99.43612 | 40870 ft | 552 kts | 109° |
| 2026-05-08 01:57 | 38.86295 | -99.34170 | 40878 ft | 553 kts | 109° |
| 2026-05-08 01:57 | 38.84062 | -99.24736 | 40878 ft | 553 kts | 110° |
| 2026-05-08 01:58 | 38.81603 | -99.15399 | 40878 ft | 552 kts | 112° |
| 2026-05-08 01:58 | 38.79071 | -99.06180 | 40876 ft | 552 kts | 112° |
| 2026-05-08 01:59 | 38.76539 | -98.96875 | 40860 ft | 553 kts | 112° |
| 2026-05-08 01:59 | 38.74448 | -98.89131 | 40866 ft | 554 kts | 112° |
| 2026-05-08 02:00 | 38.71933 | -98.79813 | 40867 ft | 554 kts | 112° |
| 2026-05-08 02:00 | 38.69408 | -98.70494 | 40873 ft | 554 kts | 112° |
| 2026-05-08 02:01 | 38.66870 | -98.61160 | 40854 ft | 555 kts | 112° |
| 2026-05-08 02:01 | 38.64342 | -98.51902 | 40853 ft | 555 kts | 112° |
| 2026-05-08 02:02 | 38.61789 | -98.42588 | 40863 ft | 555 kts | 112° |
| 2026-05-08 02:02 | 38.59259 | -98.33386 | 40840 ft | 555 kts | 113° |
| 2026-05-08 02:03 | 38.56689 | -98.24078 | 40875 ft | 556 kts | 113° |
| 2026-05-08 02:03 | 38.54106 | -98.14752 | 40878 ft | 557 kts | 113° |
| 2026-05-08 02:04 | 38.51515 | -98.05433 | 40877 ft | 557 kts | 113° |
| 2026-05-08 02:04 | 38.48910 | -97.96129 | 40878 ft | 556 kts | 114° |
| 2026-05-08 02:05 | 38.46163 | -97.86885 | 40877 ft | 557 kts | 115° |
| 2026-05-08 02:05 | 38.43365 | -97.77656 | 40885 ft | 557 kts | 115° |
| 2026-05-08 02:06 | 38.40581 | -97.68431 | 40880 ft | 558 kts | 115° |
| 2026-05-08 02:06 | 38.37807 | -97.59208 | 40890 ft | 558 kts | 115° |
| 2026-05-08 02:07 | 38.35017 | -97.49956 | 40886 ft | 560 kts | 115° |
| 2026-05-08 02:07 | 38.32213 | -97.40685 | 40889 ft | 561 kts | 115° |
| 2026-05-08 02:08 | 38.29398 | -97.31415 | 40896 ft | 561 kts | 116° |
| 2026-05-08 02:08 | 38.26578 | -97.22157 | 40901 ft | 561 kts | 116° |
| 2026-05-08 02:09 | 38.23754 | -97.12917 | 40908 ft | 561 kts | 116° |
| 2026-05-08 02:09 | 38.20919 | -97.03676 | 40904 ft | 560 kts | 116° |
| 2026-05-08 02:10 | 38.18079 | -96.94446 | 40901 ft | 560 kts | 116° |
| 2026-05-08 02:10 | 38.15233 | -96.85231 | 40903 ft | 560 kts | 116° |
| 2026-05-08 02:11 | 38.12395 | -96.76070 | 40905 ft | 562 kts | 116° |
| 2026-05-08 02:11 | 38.09522 | -96.66830 | 40916 ft | 563 kts | 116° |
| 2026-05-08 02:12 | 38.06642 | -96.57592 | 40919 ft | 563 kts | 116° |
| 2026-05-08 02:12 | 38.03753 | -96.48358 | 40919 ft | 563 kts | 116° |
| 2026-05-08 02:13 | 38.00855 | -96.39125 | 40911 ft | 564 kts | 116° |
| 2026-05-08 02:13 | 37.97978 | -96.29990 | 40931 ft | 565 kts | 116° |
| 2026-05-08 02:14 | 37.95057 | -96.20748 | 40930 ft | 565 kts | 116° |
| 2026-05-08 02:14 | 37.92128 | -96.11503 | 40936 ft | 565 kts | 117° |
| 2026-05-08 02:15 | 37.89191 | -96.02267 | 40938 ft | 566 kts | 117° |
| 2026-05-08 02:15 | 37.86238 | -95.93017 | 40941 ft | 567 kts | 117° |
| 2026-05-08 02:16 | 37.83263 | -95.83720 | 40943 ft | 567 kts | 117° |
| 2026-05-08 02:16 | 37.80314 | -95.74535 | 40949 ft | 567 kts | 117° |
| 2026-05-08 02:17 | 37.77338 | -95.65299 | 40948 ft | 568 kts | 118° |
| 2026-05-08 02:17 | 37.74179 | -95.56157 | 40976 ft | 563 kts | 126° |
| 2026-05-08 02:18 | 37.70352 | -95.47578 | 40972 ft | 561 kts | 127° |
| 2026-05-08 02:18 | 37.66394 | -95.39106 | 40973 ft | 560 kts | 128° |
| 2026-05-08 02:19 | 37.62412 | -95.30651 | 40970 ft | 561 kts | 128° |
| 2026-05-08 02:19 | 37.58426 | -95.22179 | 40959 ft | 562 kts | 128° |
| 2026-05-08 02:20 | 37.54433 | -95.13687 | 40974 ft | 563 kts | 128° |
| 2026-05-08 02:20 | 37.50432 | -95.05193 | 40987 ft | 563 kts | 128° |
| 2026-05-08 02:21 | 37.46429 | -94.96716 | 40994 ft | 563 kts | 128° |
| 2026-05-08 02:21 | 37.42410 | -94.88234 | 40999 ft | 565 kts | 128° |
| 2026-05-08 02:22 | 37.38380 | -94.79749 | 40997 ft | 565 kts | 128° |
| 2026-05-08 02:22 | 37.34339 | -94.71261 | 41000 ft | 566 kts | 129° |
| 2026-05-08 02:23 | 37.30284 | -94.62766 | 41001 ft | 567 kts | 129° |
| 2026-05-08 02:23 | 37.26225 | -94.54283 | 41021 ft | 567 kts | 129° |
| 2026-05-08 02:24 | 37.22149 | -94.45790 | 41015 ft | 569 kts | 129° |
| 2026-05-08 02:24 | 37.18060 | -94.37288 | 41016 ft | 569 kts | 129° |
| 2026-05-08 02:25 | 37.13996 | -94.28859 | 40992 ft | 569 kts | 129° |
| 2026-05-08 02:25 | 37.09895 | -94.20378 | 41016 ft | 569 kts | 129° |
| 2026-05-08 02:26 | 37.05788 | -94.11908 | 41041 ft | 570 kts | 129° |
| 2026-05-08 02:26 | 37.01664 | -94.03423 | 41049 ft | 570 kts | 129° |
| 2026-05-08 02:27 | 36.97559 | -93.94923 | 41051 ft | 572 kts | 128° |
| 2026-05-08 02:27 | 36.93557 | -93.86308 | 41049 ft | 572 kts | 128° |
| 2026-05-08 02:28 | 36.89570 | -93.77691 | 41042 ft | 573 kts | 128° |
| 2026-05-08 02:28 | 36.85554 | -93.69095 | 41029 ft | 574 kts | 129° |
| 2026-05-08 02:29 | 36.81512 | -93.60494 | 41033 ft | 574 kts | 129° |
| 2026-05-08 02:29 | 36.77461 | -93.51907 | 41035 ft | 574 kts | 129° |
| 2026-05-08 02:30 | 36.73407 | -93.43336 | 41036 ft | 574 kts | 129° |
| 2026-05-08 02:30 | 36.69347 | -93.34762 | 40998 ft | 574 kts | 129° |
| 2026-05-08 02:31 | 36.65277 | -93.26197 | 41035 ft | 575 kts | 129° |
| 2026-05-08 02:31 | 36.61194 | -93.17627 | 41035 ft | 575 kts | 129° |
| 2026-05-08 02:32 | 36.57154 | -93.09167 | 41031 ft | 574 kts | 129° |
| 2026-05-08 02:32 | 36.53069 | -93.00633 | 41055 ft | 575 kts | 129° |
| 2026-05-08 02:33 | 36.48966 | -92.92088 | 41048 ft | 575 kts | 129° |
| 2026-05-08 02:33 | 36.44861 | -92.83555 | 41024 ft | 576 kts | 130° |
| 2026-05-08 02:34 | 36.40746 | -92.75025 | 41040 ft | 576 kts | 130° |
| 2026-05-08 02:34 | 36.36625 | -92.66508 | 41056 ft | 576 kts | 130° |
| 2026-05-08 02:35 | 36.32486 | -92.57977 | 41045 ft | 577 kts | 130° |
| 2026-05-08 02:35 | 36.28344 | -92.49453 | 41048 ft | 577 kts | 130° |
| 2026-05-08 02:36 | 36.24198 | -92.40938 | 41033 ft | 577 kts | 130° |
| 2026-05-08 02:36 | 36.20044 | -92.32431 | 41035 ft | 577 kts | 130° |
| 2026-05-08 02:37 | 36.15892 | -92.23946 | 41036 ft | 577 kts | 130° |
| 2026-05-08 02:37 | 36.11722 | -92.15474 | 41040 ft | 577 kts | 130° |
| 2026-05-08 02:38 | 36.07550 | -92.06997 | 41045 ft | 577 kts | 130° |
| 2026-05-08 02:38 | 36.03367 | -91.98519 | 41047 ft | 577 kts | 130° |
| 2026-05-08 02:39 | 35.99184 | -91.90056 | 41046 ft | 577 kts | 130° |
| 2026-05-08 02:39 | 35.94984 | -91.81588 | 41051 ft | 578 kts | 130° |
| 2026-05-08 02:40 | 35.90778 | -91.73130 | 41054 ft | 579 kts | 131° |
| 2026-05-08 02:40 | 35.86561 | -91.64668 | 41053 ft | 579 kts | 131° |
| 2026-05-08 02:41 | 35.82341 | -91.56217 | 41070 ft | 579 kts | 131° |
| 2026-05-08 02:41 | 35.78111 | -91.47773 | 41073 ft | 580 kts | 131° |
| 2026-05-08 02:42 | 35.73870 | -91.39329 | 41042 ft | 580 kts | 131° |
| 2026-05-08 02:42 | 35.69624 | -91.30892 | 41077 ft | 580 kts | 131° |
| 2026-05-08 02:43 | 35.66090 | -91.23884 | 41080 ft | 579 kts | 131° |
| 2026-05-08 02:43 | 35.61838 | -91.15472 | 41094 ft | 579 kts | 131° |
| 2026-05-08 02:44 | 35.57575 | -91.07065 | 41089 ft | 580 kts | 131° |
| 2026-05-08 02:44 | 35.53303 | -90.98657 | 41089 ft | 580 kts | 131° |
| 2026-05-08 02:45 | 35.49025 | -90.90254 | 41052 ft | 580 kts | 131° |
| 2026-05-08 02:45 | 35.44741 | -90.81861 | 41088 ft | 580 kts | 131° |
| 2026-05-08 02:46 | 35.40451 | -90.73478 | 41079 ft | 580 kts | 131° |
| 2026-05-08 02:46 | 35.36146 | -90.65086 | 41077 ft | 582 kts | 131° |
| 2026-05-08 02:47 | 35.31833 | -90.56697 | 41072 ft | 582 kts | 131° |
| 2026-05-08 02:47 | 35.27513 | -90.48318 | 41073 ft | 582 kts | 131° |
| 2026-05-08 02:48 | 35.23187 | -90.39947 | 41046 ft | 582 kts | 131° |
| 2026-05-08 02:48 | 35.18850 | -90.31576 | 41064 ft | 583 kts | 131° |
| 2026-05-08 02:49 | 35.14530 | -90.23255 | 41063 ft | 583 kts | 131° |
| 2026-05-08 02:49 | 35.10188 | -90.14911 | 41065 ft | 583 kts | 131° |
| 2026-05-08 02:50 | 35.05827 | -90.06548 | 41064 ft | 583 kts | 131° |
| 2026-05-08 02:50 | 35.01913 | -89.97792 | 41066 ft | 600 kts | 116° |
| 2026-05-08 02:51 | 34.99932 | -89.87821 | 41078 ft | 608 kts | 104° |
| 2026-05-08 02:51 | 34.98505 | -89.77627 | 41074 ft | 610 kts | 102° |
| 2026-05-08 02:52 | 34.97160 | -89.67438 | 41082 ft | 609 kts | 103° |
| 2026-05-08 02:52 | 34.95759 | -89.57269 | 41078 ft | 608 kts | 103° |
| 2026-05-08 02:53 | 34.94310 | -89.47111 | 41076 ft | 608 kts | 103° |
| 2026-05-08 02:53 | 34.92843 | -89.36957 | 41075 ft | 608 kts | 104° |
| 2026-05-08 02:54 | 34.91371 | -89.26808 | 41074 ft | 608 kts | 104° |
| 2026-05-08 02:54 | 34.89895 | -89.16664 | 41075 ft | 609 kts | 103° |
| 2026-05-08 02:55 | 34.87661 | -89.01424 | 41079 ft | 609 kts | 104° |
| 2026-05-08 02:56 | 34.86162 | -88.91270 | 41081 ft | 609 kts | 104° |
| 2026-05-08 02:56 | 34.84665 | -88.81198 | 41088 ft | 609 kts | 104° |
| 2026-05-08 02:57 | 34.83149 | -88.71060 | 41089 ft | 609 kts | 104° |
| 2026-05-08 02:57 | 34.81623 | -88.60909 | 41090 ft | 609 kts | 104° |
| 2026-05-08 02:58 | 34.80088 | -88.50761 | 41088 ft | 609 kts | 104° |
| 2026-05-08 02:58 | 34.78546 | -88.40622 | 41083 ft | 609 kts | 104° |
| 2026-05-08 02:59 | 34.76995 | -88.30487 | 41075 ft | 610 kts | 104° |
| 2026-05-08 02:59 | 34.75434 | -88.20346 | 41066 ft | 610 kts | 104° |
| 2026-05-08 03:00 | 34.73865 | -88.10211 | 41065 ft | 610 kts | 104° |
| 2026-05-08 03:00 | 34.72289 | -88.00091 | 40528 ft | 609 kts | 104° |
| 2026-05-08 03:00 | 34.71500 | -87.95043 | 39785 ft | 610 kts | 103° |
| 2026-05-08 03:01 | 34.70710 | -87.90010 | 39339 ft | 608 kts | 103° |
| 2026-05-08 03:01 | 34.69916 | -87.84963 | 38955 ft | 609 kts | 103° |
| 2026-05-08 03:01 | 34.69118 | -87.79905 | 38543 ft | 610 kts | 103° |
| 2026-05-08 03:01 | 34.68317 | -87.74829 | 38084 ft | 611 kts | 104° |
| 2026-05-08 03:02 | 34.67517 | -87.69775 | 37641 ft | 610 kts | 104° |
| 2026-05-08 03:02 | 34.66713 | -87.64711 | 37201 ft | 610 kts | 104° |
| 2026-05-08 03:02 | 34.65909 | -87.59660 | 36766 ft | 609 kts | 104° |
| 2026-05-08 03:02 | 34.65103 | -87.54617 | 36338 ft | 607 kts | 104° |
| 2026-05-08 03:03 | 34.64299 | -87.49601 | 35915 ft | 606 kts | 105° |
| 2026-05-08 03:03 | 34.63493 | -87.44589 | 35497 ft | 604 kts | 105° |
| 2026-05-08 03:03 | 34.62679 | -87.39582 | 35090 ft | 602 kts | 106° |
| 2026-05-08 03:03 | 34.61807 | -87.34619 | 34685 ft | 600 kts | 107° |
| 2026-05-08 03:04 | 34.60891 | -87.29688 | 34277 ft | 598 kts | 108° |
| 2026-05-08 03:04 | 34.59959 | -87.24777 | 33854 ft | 594 kts | 108° |
| 2026-05-08 03:04 | 34.59045 | -87.19967 | 33404 ft | 590 kts | 108° |
| 2026-05-08 03:04 | 34.58130 | -87.15126 | 33131 ft | 587 kts | 108° |
| 2026-05-08 03:05 | 34.57224 | -87.10300 | 33072 ft | 587 kts | 107° |
| 2026-05-08 03:05 | 34.55526 | -87.00655 | 33079 ft | 587 kts | 106° |
| 2026-05-08 03:06 | 34.53675 | -86.91106 | 33080 ft | 583 kts | 112° |
| 2026-05-08 03:06 | 34.51255 | -86.81711 | 33075 ft | 583 kts | 113° |
| 2026-05-08 03:07 | 34.48816 | -86.72367 | 33073 ft | 583 kts | 113° |
| 2026-05-08 03:07 | 34.46372 | -86.63030 | 33064 ft | 583 kts | 113° |
| 2026-05-08 03:08 | 34.43920 | -86.53669 | 32839 ft | 582 kts | 113° |
| 2026-05-08 03:08 | 34.42694 | -86.49001 | 32512 ft | 577 kts | 113° |
| 2026-05-08 03:08 | 34.41485 | -86.44403 | 32021 ft | 570 kts | 112° |
| 2026-05-08 03:08 | 34.40284 | -86.39844 | 31492 ft | 565 kts | 113° |
| 2026-05-08 03:09 | 34.39093 | -86.35333 | 30961 ft | 561 kts | 113° |
| 2026-05-08 03:09 | 34.37907 | -86.30852 | 30431 ft | 557 kts | 113° |
| 2026-05-08 03:09 | 34.36727 | -86.26402 | 29851 ft | 554 kts | 113° |
| 2026-05-08 03:09 | 34.35552 | -86.21974 | 29280 ft | 549 kts | 113° |
| 2026-05-08 03:10 | 34.34386 | -86.17598 | 28748 ft | 543 kts | 113° |
| 2026-05-08 03:10 | 34.33236 | -86.13274 | 28232 ft | 538 kts | 112° |
| 2026-05-08 03:10 | 34.32121 | -86.08973 | 27723 ft | 534 kts | 112° |
| 2026-05-08 03:10 | 34.31022 | -86.04707 | 27211 ft | 529 kts | 112° |
| 2026-05-08 03:11 | 34.29930 | -86.00478 | 26707 ft | 525 kts | 112° |
| 2026-05-08 03:11 | 34.28855 | -85.96332 | 26189 ft | 521 kts | 112° |
| 2026-05-08 03:11 | 34.27773 | -85.92168 | 25671 ft | 517 kts | 112° |
| 2026-05-08 03:11 | 34.26694 | -85.88029 | 25154 ft | 514 kts | 112° |
| 2026-05-08 03:12 | 34.25627 | -85.83935 | 24651 ft | 510 kts | 111° |
| 2026-05-08 03:12 | 34.24560 | -85.79855 | 24132 ft | 507 kts | 111° |
| 2026-05-08 03:12 | 34.23501 | -85.75808 | 23618 ft | 504 kts | 111° |
| 2026-05-08 03:12 | 34.22446 | -85.71785 | 23034 ft | 499 kts | 111° |
| 2026-05-08 03:13 | 34.21403 | -85.67810 | 22505 ft | 494 kts | 111° |
| 2026-05-08 03:13 | 34.20368 | -85.63875 | 22001 ft | 489 kts | 111° |
| 2026-05-08 03:13 | 34.19346 | -85.59991 | 21478 ft | 484 kts | 111° |
| 2026-05-08 03:13 | 34.18329 | -85.56137 | 20973 ft | 479 kts | 111° |
| 2026-05-08 03:14 | 34.17324 | -85.52330 | 20461 ft | 474 kts | 111° |
| 2026-05-08 03:14 | 34.16326 | -85.48555 | 19964 ft | 469 kts | 110° |
| 2026-05-08 03:14 | 34.15336 | -85.44819 | 19459 ft | 465 kts | 110° |
| 2026-05-08 03:14 | 34.14353 | -85.41112 | 18966 ft | 461 kts | 110° |
| 2026-05-08 03:15 | 34.13382 | -85.37435 | 18480 ft | 457 kts | 110° |
| 2026-05-08 03:15 | 34.12440 | -85.33789 | 17935 ft | 453 kts | 110° |
| 2026-05-08 03:15 | 34.11510 | -85.30179 | 17418 ft | 449 kts | 110° |
| 2026-05-08 03:15 | 34.10585 | -85.26606 | 16936 ft | 444 kts | 110° |
| 2026-05-08 03:16 | 34.09668 | -85.23073 | 16446 ft | 439 kts | 109° |
| 2026-05-08 03:16 | 34.08760 | -85.19578 | 15950 ft | 434 kts | 109° |
| 2026-05-08 03:16 | 34.07862 | -85.16127 | 15499 ft | 429 kts | 109° |
| 2026-05-08 03:16 | 34.06973 | -85.12718 | 15027 ft | 424 kts | 109° |
| 2026-05-08 03:17 | 34.06091 | -85.09341 | 14568 ft | 419 kts | 109° |
| 2026-05-08 03:17 | 34.05080 | -85.06077 | 14104 ft | 412 kts | 120° |
| 2026-05-08 03:17 | 34.03387 | -85.03410 | 13803 ft | 397 kts | 142° |
| 2026-05-08 03:17 | 34.01316 | -85.01208 | 13593 ft | 399 kts | 145° |
| 2026-05-08 03:18 | 33.99194 | -84.99045 | 13351 ft | 399 kts | 145° |
| 2026-05-08 03:18 | 33.97083 | -84.96880 | 13150 ft | 398 kts | 145° |
| 2026-05-08 03:18 | 33.94985 | -84.94717 | 12910 ft | 396 kts | 145° |
| 2026-05-08 03:18 | 33.92903 | -84.92566 | 12688 ft | 394 kts | 145° |
| 2026-05-08 03:19 | 33.90837 | -84.90430 | 12471 ft | 392 kts | 145° |
| 2026-05-08 03:19 | 33.88768 | -84.88291 | 12248 ft | 391 kts | 145° |
| 2026-05-08 03:19 | 33.86715 | -84.86169 | 12021 ft | 389 kts | 145° |
| 2026-05-08 03:19 | 33.84665 | -84.84049 | 11813 ft | 388 kts | 145° |
| 2026-05-08 03:20 | 33.82625 | -84.81940 | 11566 ft | 386 kts | 146° |
| 2026-05-08 03:20 | 33.80588 | -84.79838 | 11360 ft | 385 kts | 146° |
| 2026-05-08 03:20 | 33.78588 | -84.77775 | 11135 ft | 383 kts | 146° |
| 2026-05-08 03:20 | 33.76561 | -84.75685 | 10910 ft | 381 kts | 146° |
| 2026-05-08 03:21 | 33.74581 | -84.73645 | 10694 ft | 379 kts | 146° |
| 2026-05-08 03:21 | 33.72524 | -84.71764 | 10525 ft | 360 kts | 154° |
| 2026-05-08 03:21 | 33.70458 | -84.70249 | 10326 ft | 337 kts | 157° |
| 2026-05-08 03:21 | 33.68490 | -84.68861 | 10134 ft | 319 kts | 158° |
| 2026-05-08 03:22 | 33.66603 | -84.67538 | 9940 ft | 313 kts | 158° |
| 2026-05-08 03:22 | 33.64712 | -84.66218 | 9754 ft | 315 kts | 158° |
| 2026-05-08 03:22 | 33.62824 | -84.64897 | 9534 ft | 313 kts | 158° |
| 2026-05-08 03:22 | 33.60943 | -84.63575 | 9367 ft | 313 kts | 158° |
| 2026-05-08 03:23 | 33.59070 | -84.62257 | 9185 ft | 311 kts | 157° |
| 2026-05-08 03:23 | 33.57205 | -84.60944 | 9014 ft | 310 kts | 157° |
| 2026-05-08 03:23 | 33.55396 | -84.59572 | 8817 ft | 313 kts | 149° |
| 2026-05-08 03:23 | 33.54010 | -84.57524 | 8664 ft | 325 kts | 118° |
| 2026-05-08 03:24 | 33.53535 | -84.54917 | 8481 ft | 327 kts | 92° |
| 2026-05-08 03:24 | 33.53555 | -84.52191 | 8284 ft | 327 kts | 88° |
| 2026-05-08 03:24 | 33.53609 | -84.49503 | 8119 ft | 317 kts | 89° |
| 2026-05-08 03:24 | 33.53643 | -84.46905 | 7939 ft | 306 kts | 89° |
| 2026-05-08 03:25 | 33.53662 | -84.44399 | 7772 ft | 296 kts | 90° |
| 2026-05-08 03:25 | 33.53672 | -84.41987 | 7598 ft | 286 kts | 90° |
| 2026-05-08 03:25 | 33.53679 | -84.39635 | 7423 ft | 278 kts | 90° |
| 2026-05-08 03:25 | 33.53684 | -84.37346 | 7300 ft | 274 kts | 90° |
| 2026-05-08 03:26 | 33.53687 | -84.35068 | 7144 ft | 273 kts | 90° |
| 2026-05-08 03:26 | 33.53689 | -84.32796 | 6988 ft | 272 kts | 90° |
| 2026-05-08 03:26 | 33.53690 | -84.30531 | 6826 ft | 272 kts | 90° |
| 2026-05-08 03:26 | 33.53693 | -84.28311 | 6581 ft | 270 kts | 90° |
| 2026-05-08 03:27 | 33.53697 | -84.26071 | 6315 ft | 268 kts | 90° |
| 2026-05-08 03:27 | 33.53699 | -84.23842 | 6040 ft | 266 kts | 90° |
| 2026-05-08 03:27 | 33.53700 | -84.21667 | 5768 ft | 263 kts | 90° |
| 2026-05-08 03:27 | 33.53751 | -84.19493 | 5487 ft | 259 kts | 81° |
| 2026-05-08 03:28 | 33.54390 | -84.17533 | 5216 ft | 248 kts | 49° |
| 2026-05-08 03:28 | 33.55655 | -84.16286 | 4951 ft | 226 kts | 17° |
| 2026-05-08 03:28 | 33.57112 | -84.15808 | 4697 ft | 213 kts | 2° |
| 2026-05-08 03:28 | 33.58551 | -84.15704 | 4477 ft | 203 kts | 355° |
| 2026-05-08 03:29 | 33.59945 | -84.15698 | 4227 ft | 197 kts | 355° |
| 2026-05-08 03:29 | 33.61262 | -84.15958 | 3993 ft | 188 kts | 336° |
| 2026-05-08 03:29 | 33.62005 | -84.16504 | 3972 ft | 185 kts | 314° |
| 2026-05-08 03:29 | 33.62655 | -84.17790 | 4000 ft | 183 kts | 293° |
| 2026-05-08 03:30 | 33.63411 | -84.20735 | 3992 ft | 185 kts | 279° |
| 2026-05-08 03:30 | 33.63467 | -84.23678 | 3716 ft | 173 kts | 274° |
| 2026-05-08 03:31 | 33.63473 | -84.26477 | 3321 ft | 158 kts | 272° |
| 2026-05-08 03:31 | 33.63441 | -84.29095 | 2837 ft | 156 kts | 275° |
| 2026-05-08 03:32 | 33.63448 | -84.30395 | 2686 ft | 154 kts | 275° |
| 2026-05-08 03:32 | 33.63457 | -84.31627 | 2493 ft | 143 kts | 275° |
| 2026-05-08 03:32 | 33.63467 | -84.32794 | 2257 ft | 137 kts | 275° |
| 2026-05-08 03:32 | 33.63475 | -84.33898 | 2079 ft | 128 kts | 276° |
| 2026-05-08 03:33 | 33.63483 | -84.34963 | 1945 ft | 128 kts | 276° |
| 2026-05-08 03:33 | 33.63477 | -84.36038 | 1755 ft | 129 kts | 274° |
| 2026-05-08 03:33 | 33.63478 | -84.37106 | 1626 ft | 129 kts | 274° |
| 2026-05-08 03:33 | 33.63482 | -84.38185 | 1441 ft | 130 kts | 271° |
| 2026-05-08 03:34 | 33.63473 | -84.39275 | 1302 ft | 131 kts | 272° |
| 2026-05-08 03:34 | 33.63470 | -84.40366 | 1125 ft | 129 kts | 271° |
| 2026-05-08 03:34 | 33.63469 | -84.41453 | 1014 ft | 130 kts | 272° |
| 2026-05-08 03:34 | 33.63472 | -84.42315 | 1014 ft | 66 kts | 269° |
| 2026-05-08 03:35 | 33.63472 | -84.42726 | 1012 ft | 45 kts | 270° |
| 2026-05-08 03:35 | 33.63485 | -84.43006 | 1012 ft | 19 kts | 289° |
| 2026-05-08 03:35 | 33.63544 | -84.43121 | 1012 ft | 10 kts | 323° |
| 2026-05-08 03:35 | 33.63579 | -84.43091 | 1012 ft | 6 kts | 83° |
| 2026-05-08 03:36 | 33.63581 | -84.43023 | 1012 ft | 10 kts | 90° |
| 2026-05-08 03:36 | 33.63581 | -84.42925 | 1012 ft | 14 kts | 90° |
| 2026-05-08 03:36 | 33.63580 | -84.42799 | 1013 ft | 16 kts | 90° |
| 2026-05-08 03:36 | 33.63581 | -84.42668 | 1013 ft | 15 kts | 90° |
| 2026-05-08 03:37 | 33.63581 | -84.42549 | 1013 ft | 13 kts | 90° |
| 2026-05-08 03:37 | 33.63581 | -84.42446 | 1013 ft | 13 kts | 90° |
| 2026-05-08 03:37 | 33.63581 | -84.42323 | 1013 ft | 16 kts | 90° |
| 2026-05-08 03:37 | 33.63581 | -84.42234 | 1014 ft | 10 kts | 90° |
| 2026-05-08 03:38 | 33.63595 | -84.42154 | 1013 ft | 10 kts | 47° |
| 2026-05-08 03:38 | 33.63666 | -84.42145 | 1013 ft | 12 kts | 359° |
| 2026-05-08 03:38 | 33.63747 | -84.42145 | 1013 ft | 5 kts | 0° |
| 2026-05-08 03:38 | 33.63785 | -84.42145 | 1013 ft | 5 kts | 0° |
| 2026-05-08 03:39 | 33.63820 | -84.42145 | 1013 ft | 5 kts | 360° |
| 2026-05-08 03:39 | 33.63856 | -84.42145 | 1013 ft | 5 kts | 360° |
| 2026-05-08 03:39 | 33.63893 | -84.42139 | 1013 ft | 8 kts | 21° |
| 2026-05-08 03:39 | 33.63924 | -84.42090 | 1013 ft | 5 kts | 78° |
| 2026-05-08 03:40 | 33.63925 | -84.42069 | 1013 ft | 1 kts | 86° |
| 2026-05-08 03:40 | 33.63925 | -84.42063 | 1013 ft | 2 kts | 87° |
| 2026-05-08 03:40 | 33.63925 | -84.42056 | 1013 ft | 0 kts | 88° |